Herning, Denmark
Current Conditions -  °F | °C
As of 11:20 AM on Saturday 20 Dec 2014 (Local Time) from EKKA Reporting Station
Scattered Clouds Scattered Clouds  
Wind Chill: 28°   Ceiling: Unl
Heat Index: 37°   Visibility: 6mi
Dew Point: 36°   Wind: 17mph
Humidity: 93%   Direction: 270°W
Pressure: 29.41"   Gusts: 30mph
Location:  56.14°N, 8.97°E
Report Text: EKKA 201020Z 27015G26KT 9999 SCT012 SCT018CB 03/02 Q0996
Loading
Personal Weather Stations






























Interactive Weather Map New forecast layout! Learn more

10-Day Weather Forecast

Advertisements
Track Severe Weather on mobile